Umatilla, Oregon
Current Conditions -  °F | °C
As of 2:53 AM on Saturday 20 Dec 2014 (Local Time) from KHRI Reporting Station
Light Rain Light Rain  
Wind Chill: 33°   Ceiling: 5500
Heat Index: 38°   Visibility: 10mi
Dew Point: 36°   Wind: 6mph
Humidity: 93%   Direction: 120°ESE
Pressure: 29.93"   Gusts: NA
Location:  45.92°N, 119.34°W
Report Text: KHRI 201053Z AUTO 12005KT 10SM -RA OVC055 03/02 A2993 RMK AO2 RAB20 SLP136 P0000 T00330022
Loading
Personal Weather Stations






























Interactive Weather Map New forecast layout! Learn more

10-Day Weather Forecast

Advertisements
Track Severe Weather on mobile